Lake Gregory, California
Current Conditions -  °F | °C
As of 10:35 AM on Thursday 30 Oct 2014 (Local Time) from KL35 Reporting Station
Clear Clear  
Wind Chill: 55°   Ceiling: Unl
Heat Index: 55°   Visibility: 10mi
Dew Point: 16°   Wind: 3mph
Humidity: 21%   Direction: 270°W
Pressure: 30.25"   Gusts: NA
Location:  34.198°N, 117.218°W
Report Text: KL35 301735Z AUTO 27003KT 10SM CLR 13/M09 A3025 RMK AO2
Loading
Personal Weather Stations






























Interactive Weather Map
Tropical Storm Tracking
New forecast layout! Learn more

10-Day Weather Forecast

Advertisements
Track Severe Weather on mobile